createdAt,value
2018-04-27T00:01:00.737Z,51.85
2018-04-27T00:03:28.946Z,52.17
2018-04-27T00:05:57.000Z,52.03
2018-04-27T00:08:24.517Z,52.09
2018-04-27T00:10:52.305Z,52.39
2018-04-27T00:13:19.795Z,53.19
2018-04-27T00:15:47.725Z,52.81
2018-04-27T00:18:15.170Z,53.06
2018-04-27T00:20:42.640Z,53.25
2018-04-27T00:23:10.072Z,53.30
2018-04-27T00:25:37.520Z,53.32
2018-04-27T00:28:04.954Z,53.85
2018-04-27T00:30:32.485Z,53.38
2018-04-27T00:33:00.365Z,53.62
2018-04-27T00:35:27.887Z,53.75
2018-04-27T00:37:55.421Z,53.86
2018-04-27T00:40:23.249Z,54.12
2018-04-27T00:42:50.679Z,53.78
2018-04-27T00:45:19.058Z,53.81
2018-04-27T00:47:46.733Z,53.84
2018-04-27T00:50:14.786Z,53.87
2018-04-27T00:52:54.071Z,53.72
2018-04-27T00:55:21.520Z,54.23
2018-04-27T00:57:49.244Z,54.01
2018-04-27T01:00:16.704Z,54.22
2018-04-27T01:02:44.173Z,54.17
2018-04-27T01:05:11.790Z,53.98
2018-04-27T01:07:39.262Z,54.28
2018-04-27T01:10:06.828Z,54.54
2018-04-27T01:12:34.273Z,54.74
2018-04-27T01:15:01.735Z,54.92
2018-04-27T01:17:29.228Z,54.95
2018-04-27T01:19:56.762Z,55.16
2018-04-27T01:22:24.204Z,55.26
2018-04-27T01:24:51.655Z,55.34
2018-04-27T01:27:19.148Z,55.56
2018-04-27T01:29:46.709Z,56.13
2018-04-27T01:32:14.310Z,55.63
2018-04-27T01:34:41.963Z,55.96
2018-04-27T01:37:09.477Z,56.03
2018-04-27T01:39:36.980Z,55.96
2018-04-27T01:42:04.782Z,55.79
2018-04-27T01:44:32.465Z,55.58
2018-04-27T01:46:59.942Z,55.81
2018-04-27T01:49:27.388Z,55.83
2018-04-27T01:51:55.341Z,55.79
2018-04-27T01:54:22.855Z,55.73
2018-04-27T01:56:50.325Z,55.72
2018-04-27T01:59:17.770Z,55.75
2018-04-27T02:01:45.347Z,55.88
2018-04-27T02:04:12.908Z,55.51
2018-04-27T02:06:40.553Z,55.97
2018-04-27T02:09:08.055Z,56.25
2018-04-27T02:11:35.655Z,56.25
2018-04-27T02:14:03.264Z,56.48
2018-04-27T02:16:30.740Z,56.50
2018-04-27T02:18:58.259Z,56.77
2018-04-27T02:21:27.365Z,56.88
2018-04-27T02:23:54.826Z,56.87
2018-04-27T02:26:22.270Z,57.07
2018-04-27T02:28:49.809Z,57.26
2018-04-27T02:31:17.412Z,57.07
2018-04-27T02:33:44.967Z,57.83
2018-04-27T02:36:12.442Z,57.54
2018-04-27T02:38:39.880Z,57.61
2018-04-27T02:41:07.323Z,57.55
2018-04-27T02:43:34.771Z,57.61
2018-04-27T02:46:02.192Z,57.96
2018-04-27T02:48:29.633Z,57.77
2018-04-27T02:50:57.114Z,57.93
2018-04-27T02:53:24.665Z,58.05
2018-04-27T02:55:52.135Z,58.24
2018-04-27T02:58:19.723Z,58.64
2018-04-27T03:00:47.251Z,58.61
2018-04-27T03:03:14.759Z,58.59
2018-04-27T03:05:42.220Z,58.67
2018-04-27T03:08:09.675Z,59.08
2018-04-27T03:10:37.121Z,58.84
2018-04-27T03:13:04.542Z,58.76
2018-04-27T03:15:32.034Z,58.72
2018-04-27T03:17:59.471Z,58.65
2018-04-27T03:20:27.001Z,58.50
2018-04-27T03:22:54.482Z,58.36
2018-04-27T03:25:21.898Z,58.39
2018-04-27T03:27:49.873Z,58.92
2018-04-27T03:30:17.385Z,59.29
2018-04-27T03:32:44.843Z,59.68
2018-04-27T03:35:12.919Z,59.49
2018-04-27T03:37:40.382Z,59.74
2018-04-27T03:40:07.910Z,60.20
2018-04-27T03:42:36.468Z,60.21
2018-04-27T03:45:03.945Z,60.86
2018-04-27T03:47:31.463Z,60.36
2018-04-27T03:49:58.967Z,60.24
2018-04-27T03:52:26.444Z,60.10
2018-04-27T03:54:53.889Z,60.06
2018-04-27T03:57:21.345Z,59.94
2018-04-27T04:00:00.628Z,60.20
2018-04-27T04:02:39.738Z,60.57
2018-04-27T04:05:19.068Z,60.34
2018-04-27T04:07:47.495Z,60.45
2018-04-27T04:10:14.951Z,60.42
2018-04-27T04:12:42.380Z,60.74
2018-04-27T04:15:10.225Z,60.75
2018-04-27T04:17:37.860Z,60.75
2018-04-27T04:20:05.610Z,60.56
2018-04-27T04:22:33.067Z,60.52
2018-04-27T04:25:00.868Z,60.81
2018-04-27T04:27:28.361Z,61.17
2018-04-27T04:29:55.814Z,60.93
2018-04-27T04:32:23.450Z,60.80
2018-04-27T04:34:50.830Z,61.92
2018-04-27T04:37:18.335Z,61.27
2018-04-27T04:39:45.795Z,61.42
2018-04-27T04:42:13.244Z,61.32
2018-04-27T04:44:40.672Z,61.21
2018-04-27T04:47:08.164Z,60.76
2018-04-27T04:49:35.896Z,60.68
2018-04-27T04:52:03.344Z,60.85
2018-04-27T04:54:30.779Z,60.72
2018-04-27T04:56:58.235Z,60.63
2018-04-27T04:59:25.685Z,60.57
2018-04-27T05:01:53.126Z,60.27
2018-04-27T05:04:20.560Z,60.15
2018-04-27T05:06:48.021Z,60.32
2018-04-27T05:09:15.473Z,60.50
2018-04-27T05:11:43.906Z,60.29
2018-04-27T05:14:11.501Z,60.33
2018-04-27T05:16:39.028Z,60.67
2018-04-27T05:19:06.774Z,60.16
2018-04-27T05:21:34.234Z,60.28
2018-04-27T05:24:01.920Z,60.20
2018-04-27T05:26:29.405Z,60.19
2018-04-27T05:28:56.995Z,60.10
2018-04-27T05:31:24.541Z,60.04
2018-04-27T05:33:51.990Z,59.89
2018-04-27T05:36:19.515Z,60.06
2018-04-27T05:38:47.059Z,60.07
2018-04-27T05:41:14.668Z,59.85
2018-04-27T05:43:42.160Z,59.79
2018-04-27T05:46:10.292Z,59.47
2018-04-27T05:48:39.062Z,58.47
2018-04-27T05:51:06.530Z,52.76
2018-04-27T05:53:34.007Z,47.66
2018-04-27T05:56:01.633Z,43.71
2018-04-27T05:58:29.105Z,39.98
2018-04-27T06:00:56.545Z,37.66
2018-04-27T06:03:24.107Z,35.38
2018-04-27T06:05:51.548Z,33.76
2018-04-27T06:08:18.994Z,35.06
2018-04-27T06:10:46.824Z,33.34
2018-04-27T06:13:15.102Z,32.45
2018-04-27T06:15:42.569Z,31.31
2018-04-27T06:18:10.007Z,30.38
2018-04-27T06:20:37.464Z,29.79
2018-04-27T06:23:04.938Z,29.02
2018-04-27T06:25:32.491Z,27.92
2018-04-27T06:28:00.252Z,27.14
2018-04-27T06:30:27.773Z,27.65
2018-04-27T06:32:55.222Z,28.05
2018-04-27T06:35:22.688Z,33.06
2018-04-27T06:37:50.320Z,36.65
2018-04-27T06:40:18.741Z,38.92
2018-04-27T06:42:46.191Z,40.94
2018-04-27T06:45:13.664Z,42.99
2018-04-27T06:47:41.227Z,43.71
2018-04-27T06:50:08.975Z,44.39
2018-04-27T06:52:36.534Z,45.18
2018-04-27T06:55:08.838Z,45.65
2018-04-27T06:57:36.274Z,45.33
2018-04-27T07:00:03.992Z,46.46
2018-04-27T07:02:31.464Z,46.60
2018-04-27T07:04:59.140Z,46.14
2018-04-27T07:07:26.746Z,46.02
2018-04-27T07:09:54.228Z,46.98
2018-04-27T07:12:21.766Z,47.54
2018-04-27T07:14:49.327Z,45.88
2018-04-27T07:17:16.869Z,46.76
2018-04-27T07:19:44.395Z,46.67
2018-04-27T07:22:11.880Z,46.21
2018-04-27T07:24:39.352Z,46.27
2018-04-27T07:27:07.413Z,46.85
2018-04-27T07:29:34.873Z,45.33
2018-04-27T07:32:02.507Z,46.32
2018-04-27T07:34:30.070Z,45.70
2018-04-27T07:36:57.728Z,44.15
2018-04-27T07:39:25.207Z,45.27
2018-04-27T07:41:52.649Z,44.75
2018-04-27T07:44:20.102Z,44.44
2018-04-27T07:46:47.582Z,44.42
2018-04-27T07:49:15.028Z,43.60
2018-04-27T07:51:42.493Z,43.54
2018-04-27T07:54:09.946Z,42.33
2018-04-27T07:56:37.583Z,43.24
2018-04-27T07:59:05.154Z,43.95
2018-04-27T08:01:33.435Z,43.90
2018-04-27T08:04:00.997Z,44.54
2018-04-27T08:06:28.596Z,43.46
2018-04-27T08:08:56.143Z,41.64
2018-04-27T08:11:23.672Z,41.85
2018-04-27T08:13:51.256Z,41.72
2018-04-27T08:16:18.693Z,40.33
2018-04-27T08:18:46.238Z,40.09
2018-04-27T08:21:13.743Z,41.14
2018-04-27T08:23:41.180Z,40.58
2018-04-27T08:26:08.617Z,41.04
2018-04-27T08:28:37.015Z,40.03
2018-04-27T08:31:04.523Z,39.95
2018-04-27T08:33:32.059Z,39.76
2018-04-27T08:35:59.652Z,39.91
2018-04-27T08:38:27.219Z,40.64
2018-04-27T08:40:54.925Z,39.47
2018-04-27T08:43:22.423Z,39.32
2018-04-27T08:45:49.991Z,37.27
2018-04-27T08:48:17.439Z,38.54
2018-04-27T08:50:44.922Z,38.29
2018-04-27T08:53:12.596Z,37.61
2018-04-27T08:55:40.025Z,36.37
2018-04-27T08:58:07.635Z,35.92
2018-04-27T09:00:35.292Z,33.75
2018-04-27T09:03:02.857Z,34.62
2018-04-27T09:05:31.159Z,35.63
2018-04-27T09:07:58.633Z,35.87
2018-04-27T09:10:26.126Z,34.99
2018-04-27T09:12:53.632Z,33.44
2018-04-27T09:15:21.328Z,33.81
2018-04-27T09:17:48.765Z,33.95
2018-04-27T09:20:16.312Z,34.55
2018-04-27T09:22:44.149Z,33.99
2018-04-27T09:25:11.684Z,33.55
2018-04-27T09:27:40.033Z,34.65
2018-04-27T09:30:07.610Z,34.56
2018-04-27T09:32:35.169Z,33.57
2018-04-27T09:35:02.686Z,34.10
2018-04-27T09:37:30.285Z,35.17
2018-04-27T09:39:57.738Z,33.77
2018-04-27T09:42:25.833Z,33.79
2018-04-27T09:44:53.386Z,33.42
2018-04-27T09:47:21.041Z,34.41
2018-04-27T09:49:48.729Z,33.85
2018-04-27T09:52:18.126Z,34.10
2018-04-27T09:54:45.776Z,33.04
2018-04-27T09:57:14.452Z,35.42
2018-04-27T09:59:42.014Z,34.93
2018-04-27T10:02:09.541Z,35.65
2018-04-27T10:04:37.982Z,34.15
2018-04-27T10:07:05.569Z,33.76
2018-04-27T10:09:33.240Z,34.79
2018-04-27T10:12:00.825Z,34.17
2018-04-27T10:14:28.313Z,33.36
2018-04-27T10:16:55.831Z,33.85
2018-04-27T10:19:23.426Z,34.12
2018-04-27T10:21:51.072Z,34.06
2018-04-27T10:24:18.640Z,32.49
2018-04-27T10:26:46.119Z,31.98
2018-04-27T10:29:13.661Z,32.04
2018-04-27T10:31:41.246Z,33.26
2018-04-27T10:34:08.912Z,34.65
2018-04-27T10:36:37.643Z,32.02
2018-04-27T10:39:05.966Z,33.03
2018-04-27T10:41:33.531Z,32.59
2018-04-27T10:44:01.327Z,32.46
2018-04-27T10:46:29.031Z,32.05
2018-04-27T10:48:57.482Z,32.50
2018-04-27T10:51:25.028Z,32.26
2018-04-27T10:53:52.549Z,32.91
2018-04-27T10:56:20.056Z,32.41
2018-04-27T10:58:47.629Z,32.00
2018-04-27T11:01:15.190Z,32.02
2018-04-27T11:03:42.660Z,30.99
2018-04-27T11:06:11.004Z,31.99
2018-04-27T11:08:38.606Z,32.18
2018-04-27T11:11:06.262Z,31.81
2018-04-27T11:13:33.874Z,31.60
2018-04-27T11:16:01.363Z,31.29
2018-04-27T11:18:29.814Z,31.48
2018-04-27T11:20:57.566Z,30.75
2018-04-27T11:23:25.004Z,31.96
2018-04-27T11:25:52.525Z,32.36
2018-04-27T11:28:19.979Z,30.54
2018-04-27T11:30:47.440Z,30.88
2018-04-27T11:33:15.048Z,30.95
2018-04-27T11:35:42.629Z,30.09
2018-04-27T11:38:10.211Z,30.87
2018-04-27T11:40:37.845Z,31.25
2018-04-27T11:43:05.321Z,30.92
2018-04-27T11:45:32.790Z,30.22
2018-04-27T11:48:00.287Z,31.54
2018-04-27T11:50:27.809Z,31.26
2018-04-27T11:52:55.322Z,31.29
2018-04-27T11:55:25.368Z,31.15
2018-04-27T11:57:56.824Z,31.20
2018-04-27T12:03:52.689Z,30.29
2018-04-27T12:06:28.064Z,31.28
2018-04-27T12:08:57.185Z,30.31
2018-04-27T12:11:25.534Z,30.43
2018-04-27T12:13:54.043Z,30.75
2018-04-27T12:16:21.959Z,31.74
2018-04-27T12:18:50.127Z,30.68
2018-04-27T12:21:18.927Z,29.73
2018-04-27T12:23:49.417Z,29.94
2018-04-27T12:29:28.337Z,30.20
2018-04-27T12:31:56.053Z,27.66
2018-04-27T12:34:23.559Z,27.71
2018-04-27T12:36:51.213Z,25.48
2018-04-27T12:39:18.860Z,23.43
2018-04-27T12:41:47.369Z,20.91
2018-04-27T12:44:14.828Z,20.33
2018-04-27T12:46:42.432Z,19.59
2018-04-27T12:49:09.965Z,18.36
2018-04-27T12:51:37.607Z,18.38
2018-04-27T12:54:05.503Z,18.80
2018-04-27T12:56:33.469Z,17.77
2018-04-27T12:59:00.994Z,18.11
2018-04-27T13:01:28.499Z,17.65
2018-04-27T13:03:56.118Z,18.22
2018-04-27T13:06:25.410Z,17.07
2018-04-27T13:08:53.914Z,17.43
2018-04-27T13:11:21.379Z,16.78
2018-04-27T13:13:49.734Z,17.06
2018-04-27T13:16:17.220Z,16.80
2018-04-27T13:18:44.797Z,17.21
2018-04-27T13:21:12.252Z,16.61
2018-04-27T13:23:39.783Z,16.67
2018-04-27T13:26:07.244Z,16.33
2018-04-27T13:28:35.201Z,16.05
2018-04-27T13:31:02.777Z,17.78
2018-04-27T13:33:30.385Z,18.27
2018-04-27T13:35:57.888Z,17.27
2018-04-27T13:38:25.522Z,16.71
2018-04-27T13:40:53.723Z,16.80
2018-04-27T13:43:21.581Z,17.35
2018-04-27T13:45:49.981Z,17.10
2018-04-27T13:48:17.474Z,18.04
2018-04-27T13:50:45.065Z,17.52
2018-04-27T13:53:12.712Z,18.57
2018-04-27T13:55:40.222Z,18.92
2018-04-27T13:58:07.746Z,18.64
2018-04-27T14:00:35.233Z,19.16
2018-04-27T14:03:02.731Z,19.64
2018-04-27T14:05:30.337Z,18.75
2018-04-27T14:07:57.736Z,18.08
2018-04-27T14:10:26.690Z,17.98
2018-04-27T14:12:54.155Z,17.39
2018-04-27T14:15:21.632Z,18.49
2018-04-27T14:17:49.077Z,18.71
2018-04-27T14:20:16.622Z,18.97
2018-04-27T14:22:44.217Z,18.94
2018-04-27T14:25:11.710Z,19.16
2018-04-27T14:27:39.162Z,20.04
2018-04-27T14:30:07.025Z,20.11
2018-04-27T14:32:34.567Z,20.64
2018-04-27T14:35:02.056Z,20.46
2018-04-27T14:37:29.587Z,21.19
2018-04-27T14:39:57.347Z,21.29
2018-04-27T14:42:24.868Z,21.83
2018-04-27T14:44:52.417Z,22.19
2018-04-27T14:47:20.029Z,22.35
2018-04-27T14:49:47.536Z,22.88
2018-04-27T14:52:15.182Z,22.96
2018-04-27T14:54:42.898Z,21.58
2018-04-27T14:57:10.511Z,21.67
2018-04-27T14:59:38.040Z,21.89
2018-04-27T15:02:05.491Z,22.37
2018-04-27T15:04:32.973Z,22.97
2018-04-27T15:07:00.633Z,22.63
2018-04-27T15:09:28.787Z,21.67
2018-04-27T15:11:56.475Z,22.44
2018-04-27T15:14:24.709Z,22.71
2018-04-27T15:16:52.233Z,22.41
2018-04-27T15:19:20.154Z,23.11
2018-04-27T15:21:47.603Z,23.11
2018-04-27T15:24:15.068Z,23.49
2018-04-27T15:26:43.038Z,23.55
2018-04-27T15:29:10.584Z,22.94
2018-04-27T15:31:38.073Z,23.68
2018-04-27T15:34:05.591Z,23.18
2018-04-27T15:36:33.159Z,23.54
2018-04-27T15:39:00.601Z,24.13
2018-04-27T15:41:28.159Z,23.92
2018-04-27T15:43:55.811Z,24.13
2018-04-27T15:46:23.283Z,25.05
2018-04-27T15:48:50.837Z,25.37
2018-04-27T15:51:18.482Z,25.61
2018-04-27T15:53:46.078Z,25.34
2018-04-27T15:56:13.533Z,25.61
2018-04-27T15:58:41.459Z,25.45
2018-04-27T16:01:09.012Z,26.37
2018-04-27T16:03:36.543Z,26.65
2018-04-27T16:06:04.186Z,26.55
2018-04-27T16:08:31.732Z,27.83
2018-04-27T16:10:59.681Z,27.89
2018-04-27T16:13:42.929Z,27.34
2018-04-27T16:16:11.131Z,27.55
2018-04-27T16:18:38.608Z,27.76
2018-04-27T16:21:06.150Z,27.59
2018-04-27T16:23:34.159Z,28.54
2018-04-27T16:26:02.660Z,28.16
2018-04-27T16:28:30.101Z,28.91
2018-04-27T16:30:57.778Z,28.33
2018-04-27T16:33:25.295Z,29.50
2018-04-27T16:35:53.242Z,29.43
2018-04-27T16:38:20.718Z,29.25
2018-04-27T16:40:48.517Z,29.06
2018-04-27T16:43:16.212Z,28.56
2018-04-27T16:45:43.801Z,28.49
2018-04-27T16:48:11.307Z,28.51
2018-04-27T16:50:38.960Z,27.77
2018-04-27T16:53:06.445Z,27.64
2018-04-27T16:55:33.934Z,27.80
2018-04-27T16:58:01.432Z,28.20
2018-04-27T17:00:28.909Z,29.30
2018-04-27T17:02:56.967Z,29.39
2018-04-27T17:05:24.461Z,29.44
2018-04-27T17:07:52.214Z,29.35
2018-04-27T17:10:19.811Z,29.38
2018-04-27T17:12:47.578Z,29.36
2018-04-27T17:15:16.333Z,29.58
2018-04-27T17:17:43.949Z,29.61
2018-04-27T17:20:11.447Z,29.81
2018-04-27T17:22:39.331Z,29.92
2018-04-27T17:25:07.855Z,30.08
2018-04-27T17:27:35.369Z,30.13
2018-04-27T17:30:03.485Z,30.65
2018-04-27T17:32:31.942Z,30.86
2018-04-27T17:35:00.056Z,30.80
2018-04-27T17:37:27.594Z,30.61
2018-04-27T17:39:55.153Z,30.28
2018-04-27T17:42:23.117Z,29.82
2018-04-27T17:44:51.095Z,29.42
2018-04-27T17:47:18.767Z,28.09
2018-04-27T17:49:56.249Z,26.47
2018-04-27T17:52:23.786Z,25.88
2018-04-27T17:54:51.409Z,25.82
2018-04-27T17:57:19.375Z,24.58
2018-04-27T18:02:24.829Z,24.45
2018-04-27T18:04:55.241Z,23.26
2018-04-27T18:07:22.856Z,23.24
2018-04-27T18:09:50.311Z,23.03
2018-04-27T18:12:17.945Z,23.30
2018-04-27T18:14:48.608Z,22.80
2018-04-27T18:17:16.215Z,23.12
2018-04-27T18:19:46.273Z,22.92
2018-04-27T18:22:13.950Z,23.11
2018-04-27T18:24:42.670Z,23.55
2018-04-27T18:27:10.123Z,23.05
2018-04-27T18:29:38.277Z,23.37
2018-04-27T18:32:05.860Z,23.57
2018-04-27T18:34:33.428Z,23.04
2018-04-27T18:37:00.994Z,23.37
2018-04-27T18:39:30.849Z,23.43
2018-04-27T18:41:58.465Z,23.42
2018-04-27T18:44:26.525Z,23.62
2018-04-27T18:46:55.141Z,23.67
2018-04-27T18:49:29.377Z,23.84
2018-04-27T18:52:04.079Z,24.05
2018-04-27T18:54:31.551Z,24.32
2018-04-27T18:57:00.256Z,24.58
2018-04-27T18:59:27.825Z,25.09
2018-04-27T19:01:55.331Z,25.43
2018-04-27T19:04:22.876Z,25.89
2018-04-27T19:06:50.352Z,26.30
2018-04-27T19:09:18.042Z,26.51
2018-04-27T19:11:46.395Z,26.77
2018-04-27T19:14:15.275Z,26.85
2018-04-27T19:16:43.260Z,27.12
2018-04-27T19:19:10.769Z,27.28
2018-04-27T19:21:38.319Z,27.55
2018-04-27T19:24:05.830Z,27.59
2018-04-27T19:26:33.365Z,27.67
2018-04-27T19:29:01.917Z,28.01
2018-04-27T19:31:30.029Z,27.99
2018-04-27T19:33:58.110Z,28.11
2018-04-27T19:36:25.839Z,28.28
2018-04-27T19:38:53.399Z,28.52
2018-04-27T19:41:27.264Z,28.89
2018-04-27T19:43:55.686Z,28.89
2018-04-27T19:46:23.801Z,28.91
2018-04-27T19:48:51.475Z,29.08
2018-04-27T19:51:19.090Z,29.23
2018-04-27T19:53:46.776Z,29.40
2018-04-27T19:56:16.186Z,29.36
2018-04-27T19:58:44.149Z,29.46
2018-04-27T20:01:11.629Z,29.68
2018-04-27T20:03:39.085Z,29.67
2018-04-27T20:06:06.730Z,29.65
2018-04-27T20:08:35.238Z,29.73
2018-04-27T20:11:02.937Z,29.69
2018-04-27T20:13:30.679Z,29.71
2018-04-27T20:16:00.867Z,29.89
2018-04-27T20:18:29.418Z,30.24
2018-04-27T20:21:01.190Z,30.40
2018-04-27T20:23:30.515Z,30.43
2018-04-27T20:26:00.038Z,30.69
2018-04-27T20:28:29.577Z,30.55
2018-04-27T20:30:57.400Z,30.61
2018-04-27T20:33:24.885Z,30.54
2018-04-27T20:35:57.154Z,30.63
2018-04-27T20:38:27.111Z,31.24
2018-04-27T20:40:54.628Z,31.08
2018-04-27T20:43:24.560Z,31.01
2018-04-27T20:45:53.453Z,31.17
2018-04-27T20:48:21.773Z,31.32
2018-04-27T20:50:52.516Z,31.21
2018-04-27T20:53:21.866Z,31.25
2018-04-27T20:55:52.795Z,31.36
2018-04-27T20:58:20.289Z,31.62
2018-04-27T21:00:47.911Z,31.65
2018-04-27T21:03:15.553Z,31.82
2018-04-27T21:05:43.127Z,31.79
2018-04-27T21:08:10.595Z,31.87
2018-04-27T21:10:38.155Z,31.91
